Truckee Tahoe Airport
KTRK : now visible

Airfield :











YOU CAN JOIN US ON...

 
LOGIN :

Register | Disclaimer

   EN    FR    IT 

 









Legend :    VFR   Marginal VFR   IFR   Intensive IFR   Very Intensive IFR
Visi :
Ceiling :
>= 8 km
>= 3000ft
5 to 8 km
1000 to 3000 ft
1500m to 5 km
500 to 1000 ft
800 to 1500m
200 to 500 ft
< 800m
< 200 ft
Symbols :   Thunderstorms  Fog  Heavy snow  Heavy precipitations  Wind > 20 kt






- Airport Elevation : 5900 ft


KTRK - Truckee Tahoe

CURRENT METAR :
  • 151315Z AUTO 00000KT 10SM OVC032 M05/M06 A2997 RMK AO2

EXPIRED METARs :
  • 151255Z AUTO 00000KT 10SM OVC028 M05/M06 A2996 RMK AO2
  • 151235Z AUTO 00000KT 10SM OVC028 M05/M06 A2995 RMK AO2
  • 151215Z AUTO 00000KT 7SM BKN030 OVC036 M06/M06 A2994 RMK AO2
  • 151155Z AUTO 00000KT 10SM BKN034 BKN042 M05/M06 A2994 RMK AO2
  • 151135Z AUTO 00000KT 10SM SCT030 SCT036 BKN044 M05/M06 A2992 RMK AO2
  • 151115Z AUTO 00000KT 10SM BKN028 OVC034 M06/M06 A2992 RMK AO2
  • 151055Z AUTO 00000KT 10SM BKN024 OVC031 M05/M05 A2992 RMK AO2
  • 151035Z AUTO 00000KT 10SM SCT022 OVC029 M05/M05 A2991 RMK AO2

TAF KTRK
Valid from the 15 at 12:00 until the 16 at 12:00 UTC


151120Z 1512/1612 14005KT 3SM BR VCSH SCT003 BKN025
FM151500 35005KT P6SM SCT035
FM160200 00000KT P6SM SKC



MET'MAP, your aeronautical weather chart ! - Copyright ORBIFLY December 2007 - Disclaimer

ORBIFLY MET'MAP TEAM :

Programming & Development : Alexandra Zaïnal
Concept & original design : Baudouin d'Aumeries
Assistance for programming : Marc-Olivier Méhu
Technical & hardware support : Manuel Goepfert

Contact : metmap@orbifly.com




SOURCES & CREDITS :

   NOAA       Earth
Advisory